WetterOnline ( http://www.wetteronline.de )

Wetter aktuell Rhön (in 800m)

Aktuelles Wetter: Wasserkuppe (925m)

6-stündlich | Neueste Meldungen
Ortszeit Temperatur Wetter
Mo, 28.05. 8:00 18.9° C leicht bewölkt
Mo, 28.05. 2:00 16.0° C leicht bewölkt
So, 27.05. 20:00 14.3° C Gewitter
So, 27.05. 14:00 20.3° C leichte Schauer
So, 27.05. 8:00 18.2° C leicht bewölkt
So, 27.05. 2:00 15.1° C wolkenlos
Sa, 26.05. 20:00 18.3° C wolkig
Sa, 26.05. 14:00 20.5° C leicht bewölkt
Ortszeit Temperatur Wetter
Mo, 28.05. 11:30 20.6° C leicht bewölkt
Mo, 28.05. 11:20 20.6° C wolkenlos
Mo, 28.05. 11:10 21.2° C wolkenlos
Mo, 28.05. 11:00 20.8° C leicht bewölkt
Mo, 28.05. 10:50 20.8° C fast wolkenlos
Mo, 28.05. 10:40 21.6° C wolkenlos
Mo, 28.05. 10:30 21.3° C wolkenlos
Mo, 28.05. 10:00 20.8° C leicht bewölkt
Mo, 28.05. 9:30 20.9° C leicht bewölkt
Mo, 28.05. 9:00 20.2° C leicht bewölkt
Mo, 28.05. 8:30 19.9° C leicht bewölkt
Ortszeit Relative Feuchte Sichtweite
Mo, 28.05. 8:00 66% 65 km
Mo, 28.05. 2:00 67% 60 km
So, 27.05. 20:00 83% 5.0 km
So, 27.05. 14:00 59% 50 km
So, 27.05. 8:00 62% 50 km
So, 27.05. 2:00 60% 50 km
Sa, 26.05. 20:00 64% 60 km
Sa, 26.05. 14:00 59% 45 km
Ortszeit Relative Feuchte Sichtweite
Mo, 28.05. 11:30 58% 55 km
Mo, 28.05. 11:20 58% -
Mo, 28.05. 11:10 60% -
Mo, 28.05. 11:00 61% 55 km
Mo, 28.05. 10:50 61% -
Mo, 28.05. 10:40 63% -
Mo, 28.05. 10:30 63% 24 km
Mo, 28.05. 10:00 62% 55 km
Mo, 28.05. 9:30 67% 55 km
Mo, 28.05. 9:00 71% 60 km
Mo, 28.05. 8:30 69% 6 km
Ortszeit Niederschlagsmenge Niederschlagsart
Mo, 28.05. 8:00 2 l/m2 in 12 Std. -
Mo, 28.05. 2:00 2 l/m2 in 6 Std. Gewitter, Schauer
So, 27.05. 20:00 3 l/m2 in 12 Std. Gewitter, Schauer
So, 27.05. 14:00 0.1 l/m2 in 6 Std. -
So, 27.05. 8:00 0.0 l/m2 in 12 Std. -
So, 27.05. 2:00 0.0 l/m2 in 6 Std. -
Sa, 26.05. 20:00 0.0 l/m2 in 12 Std. -
Sa, 26.05. 14:00 0.0 l/m2 in 6 Std. -
Ortszeit Niederschlagsmenge Niederschlagsart
Mo, 28.05. 11:30 0.0 l/m2 in 1 Std. -
Mo, 28.05. 11:20 keine Meldung -
Mo, 28.05. 11:10 keine Meldung -
Mo, 28.05. 11:00 0.0 l/m2 in 1 Std. -
Mo, 28.05. 10:50 keine Meldung -
Mo, 28.05. 10:40 keine Meldung -
Mo, 28.05. 10:30 0.0 l/m2 in 1 Std. -
Mo, 28.05. 10:00 0.0 l/m2 in 1 Std. -
Mo, 28.05. 9:30 0.0 l/m2 in 1 Std. -
Mo, 28.05. 9:00 0.0 l/m2 in 1 Std. -
Mo, 28.05. 8:30 0.0 l/m2 in 1 Std. -
Ortszeit Stärke Spitze Richtung
km/h Bft. km/h Grad Sektor
Mo, 28.05. 8:00 14 3 29 130° SO
Mo, 28.05. 2:00 25 4 36 130° SO
So, 27.05. 20:00 25 4 32 70° O
So, 27.05. 14:00 14 3 25 160° S
So, 27.05. 8:00 7 2 29 130° SO
So, 27.05. 2:00 22 4 29 110° O
Sa, 26.05. 20:00 11 2 29 60° NO
Sa, 26.05. 14:00 15 3 37 100° O
Ortszeit Stärke Spitze Richtung
km/h Bft. km/h Grad Sektor
Mo, 28.05. 11:30 18 3 29 100° O
Mo, 28.05. 11:20 18 3 - 100° O
Mo, 28.05. 11:10 20 4 - 110° O
Mo, 28.05. 11:00 20 4 28 110° O
Mo, 28.05. 10:50 20 4 - 110° O
Mo, 28.05. 10:40 20 4 - 110° O
Mo, 28.05. 10:30 19 3 28 110° O
Mo, 28.05. 10:00 22 4 30 120° SO
Mo, 28.05. 9:30 22 4 28 130° SO
Mo, 28.05. 9:00 20 4 24 120° SO
Mo, 28.05. 8:30 14 3 22 120° SO
Ortszeit Untergrenze Bedeckung Gattung
total tief tief mittel hoch
Mo, 28.05. 8:00 3000 m 3/8 1/8 - Ac Ci
Mo, 28.05. 2:00 3900 m 5/8 2/8 - Ac Ci
So, 27.05. 20:00 60 m 7/8 7/8 Cb - -
So, 27.05. 14:00 930 m 6/8 3/8 Cb Ac Ci
So, 27.05. 8:00 1500 m 4/8 1/8 Sc Ac Ci
So, 27.05. 2:00 5100 m 0/8 0/8 - - -
Sa, 26.05. 20:00 1290 m 7/8 3/8 Cu As Ci
Sa, 26.05. 14:00 750 m 4/8 2/8 Cu - Ci
Ortszeit Bedeckungsgrad in Achtel und Wolkenuntergrenze
Mo, 28.05. 11:30 3(7500m)
Mo, 28.05. 11:20 keine Wolken
Mo, 28.05. 11:10 keine Wolken
Mo, 28.05. 11:00 4(7500m)
Mo, 28.05. 10:50 1(5100m)
Mo, 28.05. 10:40 keine Wolken
Mo, 28.05. 10:30 4(7500m)
Mo, 28.05. 10:00 3(7500m)
Mo, 28.05. 9:30 3(7500m)
Mo, 28.05. 9:00 3(7500m)
Mo, 28.05. 8:30 3(7500m)
Ortszeit Stationsdruck (hPa) Tendenz (hPa in 3 Std.)
Mo, 28.05. 8:00 914 + 0,6
Mo, 28.05. 2:00 914 - 0,5
So, 27.05. 20:00 914 - 0,3
So, 27.05. 14:00 915 - 0,5
So, 27.05. 8:00 915 + 0,2
So, 27.05. 2:00 916 - 0,4
Sa, 26.05. 20:00 917 + 0,1
Sa, 26.05. 14:00 917 + 0,4
Ortszeit Stationsdruck (hPa) Tendenz (hPa in 3 Std.)
Mo, 28.05. 11:30 915 + 0,1
Mo, 28.05. 11:20 915 keine Meldung
Mo, 28.05. 11:10 915 keine Meldung
Mo, 28.05. 11:00 915 + 0,3
Mo, 28.05. 10:50 915 keine Meldung
Mo, 28.05. 10:40 915 keine Meldung
Mo, 28.05. 10:30 915 + 0,5
Mo, 28.05. 10:00 915 + 0,6
Mo, 28.05. 9:30 915 + 0,7
Mo, 28.05. 9:00 915 + 0,7
Mo, 28.05. 8:30 915 + 0,7
Ortszeit Schneehöhe (cm)
Mo, 28.05. 8:00 0
Mo, 28.05. 2:00 0
So, 27.05. 20:00 0
So, 27.05. 14:00 0
So, 27.05. 8:00 0
So, 27.05. 2:00 0
Sa, 26.05. 20:00 0
Sa, 26.05. 14:00 0
Ortszeit Schneehöhe (cm)
Mo, 28.05. 11:30 -
Mo, 28.05. 11:20 -
Mo, 28.05. 11:10 -
Mo, 28.05. 11:00 -
Mo, 28.05. 10:50 -
Mo, 28.05. 10:40 -
Mo, 28.05. 10:30 -
Mo, 28.05. 10:00 -
Mo, 28.05. 9:30 -
Mo, 28.05. 9:00 -
Mo, 28.05. 8:30 -
Link zu dieser Seite / Seite empfehlen

Das Wetter in ...